sensor_id;sensor_type;location;lat;lon;timestamp;P1;P2;P0
55518;PMS5003;41724;51.176;-0.708;2022-12-19T00:01:23;1;1;
55518;PMS5003;41724;51.176;-0.708;2022-12-19T00:03:53;2;1;
55518;PMS5003;41724;51.176;-0.708;2022-12-19T00:06:21;1;1;
55518;PMS5003;41724;51.176;-0.708;2022-12-19T00:08:50;1;1;
55518;PMS5003;41724;51.176;-0.708;2022-12-19T00:11:19;1;1;
55518;PMS5003;41724;51.176;-0.708;2022-12-19T00:13:49;1;1;
55518;PMS5003;41724;51.176;-0.708;2022-12-19T00:16:17;1;1;
55518;PMS5003;41724;51.176;-0.708;2022-12-19T00:18:46;1;1;
55518;PMS5003;41724;51.176;-0.708;2022-12-19T00:21:14;1;1;
55518;PMS5003;41724;51.176;-0.708;2022-12-19T00:23:43;1;1;
55518;PMS5003;41724;51.176;-0.708;2022-12-19T00:26:10;1;1;
55518;PMS5003;41724;51.176;-0.708;2022-12-19T00:28:39;1;1;
55518;PMS5003;41724;51.176;-0.708;2022-12-19T00:31:07;1;1;
55518;PMS5003;41724;51.176;-0.708;2022-12-19T00:33:37;1;1;
55518;PMS5003;41724;51.176;-0.708;2022-12-19T00:36:06;2;2;
55518;PMS5003;41724;51.176;-0.708;2022-12-19T00:38:37;2;2;
55518;PMS5003;41724;51.176;-0.708;2022-12-19T00:41:05;1;1;
55518;PMS5003;41724;51.176;-0.708;2022-12-19T00:43:33;1;1;
55518;PMS5003;41724;51.176;-0.708;2022-12-19T00:46:00;1;1;
55518;PMS5003;41724;51.176;-0.708;2022-12-19T00:48:28;2;2;
55518;PMS5003;41724;51.176;-0.708;2022-12-19T00:50:58;3;2;
55518;PMS5003;41724;51.176;-0.708;2022-12-19T00:53:25;3;3;
55518;PMS5003;41724;51.176;-0.708;2022-12-19T00:55:53;2;1;
55518;PMS5003;41724;51.176;-0.708;2022-12-19T00:58:21;2;1;
55518;PMS5003;41724;51.176;-0.708;2022-12-19T01:00:48;3;3;
55518;PMS5003;41724;51.176;-0.708;2022-12-19T01:03:15;2;2;
55518;PMS5003;41724;51.176;-0.708;2022-12-19T01:05:43;2;2;
55518;PMS5003;41724;51.176;-0.708;2022-12-19T01:08:10;2;2;
55518;PMS5003;41724;51.176;-0.708;2022-12-19T01:10:37;2;2;
55518;PMS5003;41724;51.176;-0.708;2022-12-19T01:13:11;1;1;
55518;PMS5003;41724;51.176;-0.708;2022-12-19T01:15:38;2;2;
55518;PMS5003;41724;51.176;-0.708;2022-12-19T01:18:06;2;2;
55518;PMS5003;41724;51.176;-0.708;2022-12-19T01:20:33;3;2;
55518;PMS5003;41724;51.176;-0.708;2022-12-19T01:23:00;5;5;
55518;PMS5003;41724;51.176;-0.708;2022-12-19T01:25:27;3;2;
55518;PMS5003;41724;51.176;-0.708;2022-12-19T01:27:55;5;4;
55518;PMS5003;41724;51.176;-0.708;2022-12-19T01:30:22;5;3;
55518;PMS5003;41724;51.176;-0.708;2022-12-19T01:32:49;5;4;
55518;PMS5003;41724;51.176;-0.708;2022-12-19T01:35:16;7;5;
55518;PMS5003;41724;51.176;-0.708;2022-12-19T01:37:43;4;4;
55518;PMS5003;41724;51.176;-0.708;2022-12-19T01:40:11;4;3;
55518;PMS5003;41724;51.176;-0.708;2022-12-19T01:42:38;7;5;
55518;PMS5003;41724;51.176;-0.708;2022-12-19T01:45:38;6;4;
55518;PMS5003;41724;51.176;-0.708;2022-12-19T01:48:10;3;3;
55518;PMS5003;41724;51.176;-0.708;2022-12-19T01:50:45;6;5;
55518;PMS5003;41724;51.176;-0.708;2022-12-19T01:53:22;6;5;
55518;PMS5003;41724;51.176;-0.708;2022-12-19T01:55:52;4;3;
55518;PMS5003;41724;51.176;-0.708;2022-12-19T01:58:20;6;5;
55518;PMS5003;41724;51.176;-0.708;2022-12-19T02:00:48;5;4;
55518;PMS5003;41724;51.176;-0.708;2022-12-19T02:03:17;4;3;
55518;PMS5003;41724;51.176;-0.708;2022-12-19T02:05:50;6;5;
55518;PMS5003;41724;51.176;-0.708;2022-12-19T02:08:20;5;5;
55518;PMS5003;41724;51.176;-0.708;2022-12-19T02:10:48;4;4;
55518;PMS5003;41724;51.176;-0.708;2022-12-19T02:13:17;3;3;
55518;PMS5003;41724;51.176;-0.708;2022-12-19T02:15:45;3;2;
55518;PMS5003;41724;51.176;-0.708;2022-12-19T02:18:27;2;2;
55518;PMS5003;41724;51.176;-0.708;2022-12-19T02:21:06;4;3;
55518;PMS5003;41724;51.176;-0.708;2022-12-19T02:23:56;3;3;
55518;PMS5003;41724;51.176;-0.708;2022-12-19T02:27:02;4;4;
55518;PMS5003;41724;51.176;-0.708;2022-12-19T02:29:48;6;5;
55518;PMS5003;41724;51.176;-0.708;2022-12-19T02:32:29;3;3;
55518;PMS5003;41724;51.176;-0.708;2022-12-19T02:35:01;4;4;
55518;PMS5003;41724;51.176;-0.708;2022-12-19T02:37:36;5;4;
55518;PMS5003;41724;51.176;-0.708;2022-12-19T02:40:12;7;7;
55518;PMS5003;41724;51.176;-0.708;2022-12-19T02:42:45;7;7;
55518;PMS5003;41724;51.176;-0.708;2022-12-19T02:45:20;9;7;
55518;PMS5003;41724;51.176;-0.708;2022-12-19T02:47:50;10;9;
55518;PMS5003;41724;51.176;-0.708;2022-12-19T02:50:18;10;9;
55518;PMS5003;41724;51.176;-0.708;2022-12-19T02:52:46;11;9;
55518;PMS5003;41724;51.176;-0.708;2022-12-19T02:55:18;8;8;
55518;PMS5003;41724;51.176;-0.708;2022-12-19T02:57:55;10;8;
55518;PMS5003;41724;51.176;-0.708;2022-12-19T03:00:38;12;9;
55518;PMS5003;41724;51.176;-0.708;2022-12-19T03:03:18;6;5;
55518;PMS5003;41724;51.176;-0.708;2022-12-19T03:05:58;8;7;
55518;PMS5003;41724;51.176;-0.708;2022-12-19T03:08:32;6;6;
55518;PMS5003;41724;51.176;-0.708;2022-12-19T03:11:08;10;8;
55518;PMS5003;41724;51.176;-0.708;2022-12-19T03:13:38;7;7;
55518;PMS5003;41724;51.176;-0.708;2022-12-19T03:16:11;7;7;
55518;PMS5003;41724;51.176;-0.708;2022-12-19T03:18:39;8;7;
55518;PMS5003;41724;51.176;-0.708;2022-12-19T03:21:08;7;6;
55518;PMS5003;41724;51.176;-0.708;2022-12-19T03:23:40;7;7;
55518;PMS5003;41724;51.176;-0.708;2022-12-19T03:26:12;8;8;
55518;PMS5003;41724;51.176;-0.708;2022-12-19T03:28:46;9;9;
55518;PMS5003;41724;51.176;-0.708;2022-12-19T03:31:20;6;5;
55518;PMS5003;41724;51.176;-0.708;2022-12-19T03:33:51;7;7;
55518;PMS5003;41724;51.176;-0.708;2022-12-19T03:36:25;7;7;
55518;PMS5003;41724;51.176;-0.708;2022-12-19T03:38:55;8;6;
55518;PMS5003;41724;51.176;-0.708;2022-12-19T03:41:25;5;3;
55518;PMS5003;41724;51.176;-0.708;2022-12-19T03:43:53;6;6;
55518;PMS5003;41724;51.176;-0.708;2022-12-19T03:46:21;5;5;
55518;PMS5003;41724;51.176;-0.708;2022-12-19T03:48:53;7;6;
55518;PMS5003;41724;51.176;-0.708;2022-12-19T03:51:23;5;4;
55518;PMS5003;41724;51.176;-0.708;2022-12-19T03:53:57;5;5;
55518;PMS5003;41724;51.176;-0.708;2022-12-19T03:56:30;7;6;
55518;PMS5003;41724;51.176;-0.708;2022-12-19T03:59:04;4;4;
55518;PMS5003;41724;51.176;-0.708;2022-12-19T04:01:39;3;3;
55518;PMS5003;41724;51.176;-0.708;2022-12-19T04:04:08;6;6;
55518;PMS5003;41724;51.176;-0.708;2022-12-19T04:06:36;5;4;
55518;PMS5003;41724;51.176;-0.708;2022-12-19T04:09:05;5;4;
55518;PMS5003;41724;51.176;-0.708;2022-12-19T04:11:33;6;6;
55518;PMS5003;41724;51.176;-0.708;2022-12-19T04:14:09;8;6;
55518;PMS5003;41724;51.176;-0.708;2022-12-19T04:16:42;5;5;
55518;PMS5003;41724;51.176;-0.708;2022-12-19T04:19:16;6;5;
55518;PMS5003;41724;51.176;-0.708;2022-12-19T04:21:46;5;4;
55518;PMS5003;41724;51.176;-0.708;2022-12-19T04:24:22;6;6;
55518;PMS5003;41724;51.176;-0.708;2022-12-19T04:26:54;3;3;
55518;PMS5003;41724;51.176;-0.708;2022-12-19T04:29:24;6;5;
55518;PMS5003;41724;51.176;-0.708;2022-12-19T04:31:54;4;4;
55518;PMS5003;41724;51.176;-0.708;2022-12-19T04:34:22;4;4;
55518;PMS5003;41724;51.176;-0.708;2022-12-19T04:36:49;5;5;
55518;PMS5003;41724;51.176;-0.708;2022-12-19T04:39:16;4;4;
55518;PMS5003;41724;51.176;-0.708;2022-12-19T04:41:43;4;4;
55518;PMS5003;41724;51.176;-0.708;2022-12-19T04:44:10;6;4;
55518;PMS5003;41724;51.176;-0.708;2022-12-19T04:46:37;4;3;
55518;PMS5003;41724;51.176;-0.708;2022-12-19T04:49:04;3;3;
55518;PMS5003;41724;51.176;-0.708;2022-12-19T04:51:31;3;3;
55518;PMS5003;41724;51.176;-0.708;2022-12-19T04:53:58;2;2;
55518;PMS5003;41724;51.176;-0.708;2022-12-19T04:56:25;3;3;
55518;PMS5003;41724;51.176;-0.708;2022-12-19T04:58:55;1;1;
55518;PMS5003;41724;51.176;-0.708;2022-12-19T05:01:22;1;1;
55518;PMS5003;41724;51.176;-0.708;2022-12-19T05:03:50;2;2;
55518;PMS5003;41724;51.176;-0.708;2022-12-19T05:06:17;3;1;
55518;PMS5003;41724;51.176;-0.708;2022-12-19T05:08:45;1;1;
55518;PMS5003;41724;51.176;-0.708;2022-12-19T05:11:12;3;3;
55518;PMS5003;41724;51.176;-0.708;2022-12-19T05:13:41;2;1;
55518;PMS5003;41724;51.176;-0.708;2022-12-19T05:16:08;3;2;
55518;PMS5003;41724;51.176;-0.708;2022-12-19T05:18:37;1;1;
55518;PMS5003;41724;51.176;-0.708;2022-12-19T05:21:05;4;4;
55518;PMS5003;41724;51.176;-0.708;2022-12-19T05:23:33;2;2;
55518;PMS5003;41724;51.176;-0.708;2022-12-19T05:26:01;3;3;
55518;PMS5003;41724;51.176;-0.708;2022-12-19T05:28:31;0;0;
55518;PMS5003;41724;51.176;-0.708;2022-12-19T05:31:01;3;2;
55518;PMS5003;41724;51.176;-0.708;2022-12-19T05:33:29;1;1;
55518;PMS5003;41724;51.176;-0.708;2022-12-19T05:35:56;2;2;
55518;PMS5003;41724;51.176;-0.708;2022-12-19T05:38:24;2;2;
55518;PMS5003;41724;51.176;-0.708;2022-12-19T05:40:51;3;2;
55518;PMS5003;41724;51.176;-0.708;2022-12-19T05:43:18;2;1;
55518;PMS5003;41724;51.176;-0.708;2022-12-19T05:45:46;2;2;
55518;PMS5003;41724;51.176;-0.708;2022-12-19T05:48:13;3;3;
55518;PMS5003;41724;51.176;-0.708;2022-12-19T05:50:40;4;4;
55518;PMS5003;41724;51.176;-0.708;2022-12-19T05:53:12;2;2;
55518;PMS5003;41724;51.176;-0.708;2022-12-19T05:55:40;1;1;
55518;PMS5003;41724;51.176;-0.708;2022-12-19T05:58:07;4;3;
55518;PMS5003;41724;51.176;-0.708;2022-12-19T06:00:34;4;4;
55518;PMS5003;41724;51.176;-0.708;2022-12-19T06:03:01;4;2;
55518;PMS5003;41724;51.176;-0.708;2022-12-19T06:05:29;3;3;
55518;PMS5003;41724;51.176;-0.708;2022-12-19T06:07:56;5;3;
55518;PMS5003;41724;51.176;-0.708;2022-12-19T06:10:23;4;4;
55518;PMS5003;41724;51.176;-0.708;2022-12-19T06:12:51;3;2;
55518;PMS5003;41724;51.176;-0.708;2022-12-19T06:15:18;5;4;
55518;PMS5003;41724;51.176;-0.708;2022-12-19T06:17:45;6;4;
55518;PMS5003;41724;51.176;-0.708;2022-12-19T06:20:12;4;4;
55518;PMS5003;41724;51.176;-0.708;2022-12-19T06:22:39;4;4;
55518;PMS5003;41724;51.176;-0.708;2022-12-19T06:25:06;3;3;
55518;PMS5003;41724;51.176;-0.708;2022-12-19T06:27:34;6;4;
55518;PMS5003;41724;51.176;-0.708;2022-12-19T06:30:00;5;4;
55518;PMS5003;41724;51.176;-0.708;2022-12-19T06:32:27;4;4;
55518;PMS5003;41724;51.176;-0.708;2022-12-19T06:34:55;2;2;
55518;PMS5003;41724;51.176;-0.708;2022-12-19T06:37:22;3;2;
55518;PMS5003;41724;51.176;-0.708;2022-12-19T06:39:49;3;3;
55518;PMS5003;41724;51.176;-0.708;2022-12-19T06:42:16;4;3;
55518;PMS5003;41724;51.176;-0.708;2022-12-19T06:44:43;3;3;
55518;PMS5003;41724;51.176;-0.708;2022-12-19T06:47:10;3;2;
55518;PMS5003;41724;51.176;-0.708;2022-12-19T06:49:37;3;2;
55518;PMS5003;41724;51.176;-0.708;2022-12-19T06:52:04;2;2;
55518;PMS5003;41724;51.176;-0.708;2022-12-19T06:54:31;3;3;
55518;PMS5003;41724;51.176;-0.708;2022-12-19T06:56:58;3;3;
55518;PMS5003;41724;51.176;-0.708;2022-12-19T06:59:25;3;3;
55518;PMS5003;41724;51.176;-0.708;2022-12-19T07:01:53;3;3;
55518;PMS5003;41724;51.176;-0.708;2022-12-19T07:04:25;2;2;
55518;PMS5003;41724;51.176;-0.708;2022-12-19T07:06:56;2;2;
55518;PMS5003;41724;51.176;-0.708;2022-12-19T07:09:24;2;1;
55518;PMS5003;41724;51.176;-0.708;2022-12-19T07:11:52;2;2;
55518;PMS5003;41724;51.176;-0.708;2022-12-19T07:14:19;2;2;
55518;PMS5003;41724;51.176;-0.708;2022-12-19T07:16:46;2;2;
55518;PMS5003;41724;51.176;-0.708;2022-12-19T07:19:15;2;2;
55518;PMS5003;41724;51.176;-0.708;2022-12-19T07:21:43;1;1;
55518;PMS5003;41724;51.176;-0.708;2022-12-19T07:24:10;3;3;
55518;PMS5003;41724;51.176;-0.708;2022-12-19T07:26:38;2;2;
55518;PMS5003;41724;51.176;-0.708;2022-12-19T07:29:07;5;5;
55518;PMS5003;41724;51.176;-0.708;2022-12-19T07:31:35;6;6;
55518;PMS5003;41724;51.176;-0.708;2022-12-19T07:34:02;6;5;
55518;PMS5003;41724;51.176;-0.708;2022-12-19T07:36:29;5;4;
55518;PMS5003;41724;51.176;-0.708;2022-12-19T07:38:56;6;6;
55518;PMS5003;41724;51.176;-0.708;2022-12-19T07:41:24;5;5;
55518;PMS5003;41724;51.176;-0.708;2022-12-19T07:43:51;8;4;
55518;PMS5003;41724;51.176;-0.708;2022-12-19T07:46:18;5;5;
55518;PMS5003;41724;51.176;-0.708;2022-12-19T07:48:45;6;5;
55518;PMS5003;41724;51.176;-0.708;2022-12-19T07:51:12;6;5;
55518;PMS5003;41724;51.176;-0.708;2022-12-19T07:53:39;4;4;
55518;PMS5003;41724;51.176;-0.708;2022-12-19T07:56:07;4;4;
55518;PMS5003;41724;51.176;-0.708;2022-12-19T07:58:34;6;5;
55518;PMS5003;41724;51.176;-0.708;2022-12-19T08:01:01;5;5;
55518;PMS5003;41724;51.176;-0.708;2022-12-19T08:03:28;5;4;
55518;PMS5003;41724;51.176;-0.708;2022-12-19T08:05:58;6;5;
55518;PMS5003;41724;51.176;-0.708;2022-12-19T08:08:26;15;12;
55518;PMS5003;41724;51.176;-0.708;2022-12-19T08:10:53;8;7;
55518;PMS5003;41724;51.176;-0.708;2022-12-19T08:13:20;8;6;
55518;PMS5003;41724;51.176;-0.708;2022-12-19T08:15:47;6;5;
55518;PMS5003;41724;51.176;-0.708;2022-12-19T08:18:15;7;6;
55518;PMS5003;41724;51.176;-0.708;2022-12-19T08:20:43;6;5;
55518;PMS5003;41724;51.176;-0.708;2022-12-19T08:23:10;5;4;
55518;PMS5003;41724;51.176;-0.708;2022-12-19T08:25:37;4;3;
55518;PMS5003;41724;51.176;-0.708;2022-12-19T08:28:04;4;4;
55518;PMS5003;41724;51.176;-0.708;2022-12-19T08:30:31;4;4;
55518;PMS5003;41724;51.176;-0.708;2022-12-19T08:32:58;4;4;
55518;PMS5003;41724;51.176;-0.708;2022-12-19T08:35:26;3;2;
55518;PMS5003;41724;51.176;-0.708;2022-12-19T08:37:53;6;6;
55518;PMS5003;41724;51.176;-0.708;2022-12-19T08:40:20;3;3;
55518;PMS5003;41724;51.176;-0.708;2022-12-19T08:42:47;6;6;
55518;PMS5003;41724;51.176;-0.708;2022-12-19T08:45:14;7;5;
55518;PMS5003;41724;51.176;-0.708;2022-12-19T08:47:41;6;5;
55518;PMS5003;41724;51.176;-0.708;2022-12-19T08:50:08;5;5;
55518;PMS5003;41724;51.176;-0.708;2022-12-19T08:52:36;6;5;
55518;PMS5003;41724;51.176;-0.708;2022-12-19T08:55:03;6;4;
55518;PMS5003;41724;51.176;-0.708;2022-12-19T08:57:31;4;4;
55518;PMS5003;41724;51.176;-0.708;2022-12-19T08:59:58;7;5;
55518;PMS5003;41724;51.176;-0.708;2022-12-19T09:02:25;6;4;
55518;PMS5003;41724;51.176;-0.708;2022-12-19T09:04:52;5;4;
55518;PMS5003;41724;51.176;-0.708;2022-12-19T09:07:19;7;6;
55518;PMS5003;41724;51.176;-0.708;2022-12-19T09:09:46;5;4;
55518;PMS5003;41724;51.176;-0.708;2022-12-19T09:12:14;4;3;
55518;PMS5003;41724;51.176;-0.708;2022-12-19T09:14:41;5;5;
55518;PMS5003;41724;51.176;-0.708;2022-12-19T09:17:08;4;3;
55518;PMS5003;41724;51.176;-0.708;2022-12-19T09:19:36;5;4;
55518;PMS5003;41724;51.176;-0.708;2022-12-19T09:22:03;4;3;
55518;PMS5003;41724;51.176;-0.708;2022-12-19T09:24:30;3;3;
55518;PMS5003;41724;51.176;-0.708;2022-12-19T09:26:57;4;3;
55518;PMS5003;41724;51.176;-0.708;2022-12-19T09:29:24;3;3;
55518;PMS5003;41724;51.176;-0.708;2022-12-19T09:31:51;3;3;
55518;PMS5003;41724;51.176;-0.708;2022-12-19T09:34:18;4;3;
55518;PMS5003;41724;51.176;-0.708;2022-12-19T09:36:44;2;2;
55518;PMS5003;41724;51.176;-0.708;2022-12-19T09:39:12;3;2;
55518;PMS5003;41724;51.176;-0.708;2022-12-19T09:41:43;5;5;
55518;PMS5003;41724;51.176;-0.708;2022-12-19T09:44:28;6;5;
55518;PMS5003;41724;51.176;-0.708;2022-12-19T09:47:09;5;5;
55518;PMS5003;41724;51.176;-0.708;2022-12-19T09:49:39;6;4;
55518;PMS5003;41724;51.176;-0.708;2022-12-19T09:52:10;3;3;
55518;PMS5003;41724;51.176;-0.708;2022-12-19T09:54:42;4;4;
55518;PMS5003;41724;51.176;-0.708;2022-12-19T09:57:13;6;6;
55518;PMS5003;41724;51.176;-0.708;2022-12-19T09:59:46;3;2;
55518;PMS5003;41724;51.176;-0.708;2022-12-19T10:02:27;4;4;
55518;PMS5003;41724;51.176;-0.708;2022-12-19T10:05:03;4;3;
55518;PMS5003;41724;51.176;-0.708;2022-12-19T10:07:37;6;5;
55518;PMS5003;41724;51.176;-0.708;2022-12-19T10:10:04;4;4;
55518;PMS5003;41724;51.176;-0.708;2022-12-19T10:12:37;7;6;
55518;PMS5003;41724;51.176;-0.708;2022-12-19T10:15:19;3;3;
55518;PMS5003;41724;51.176;-0.708;2022-12-19T10:17:57;4;4;
55518;PMS5003;41724;51.176;-0.708;2022-12-19T10:20:40;4;4;
55518;PMS5003;41724;51.176;-0.708;2022-12-19T10:23:15;2;2;
55518;PMS5003;41724;51.176;-0.708;2022-12-19T10:25:55;2;2;
55518;PMS5003;41724;51.176;-0.708;2022-12-19T10:28:33;2;2;
55518;PMS5003;41724;51.176;-0.708;2022-12-19T10:31:13;3;2;
55518;PMS5003;41724;51.176;-0.708;2022-12-19T10:33:44;2;2;
55518;PMS5003;41724;51.176;-0.708;2022-12-19T10:36:16;3;2;
55518;PMS5003;41724;51.176;-0.708;2022-12-19T10:38:46;3;2;
55518;PMS5003;41724;51.176;-0.708;2022-12-19T10:41:23;1;1;
55518;PMS5003;41724;51.176;-0.708;2022-12-19T10:43:55;4;2;
55518;PMS5003;41724;51.176;-0.708;2022-12-19T10:46:31;1;1;
55518;PMS5003;41724;51.176;-0.708;2022-12-19T10:49:05;3;2;
55518;PMS5003;41724;51.176;-0.708;2022-12-19T10:51:37;2;1;
55518;PMS5003;41724;51.176;-0.708;2022-12-19T10:54:05;2;2;
55518;PMS5003;41724;51.176;-0.708;2022-12-19T10:56:32;2;2;
55518;PMS5003;41724;51.176;-0.708;2022-12-19T10:58:59;4;3;
55518;PMS5003;41724;51.176;-0.708;2022-12-19T11:01:27;3;3;
55518;PMS5003;41724;51.176;-0.708;2022-12-19T11:04:14;4;3;
55518;PMS5003;41724;51.176;-0.708;2022-12-19T11:06:51;4;3;
55518;PMS5003;41724;51.176;-0.708;2022-12-19T11:09:30;6;5;
55518;PMS5003;41724;51.176;-0.708;2022-12-19T11:12:09;10;10;
55518;PMS5003;41724;51.176;-0.708;2022-12-19T11:14:38;7;6;
55518;PMS5003;41724;51.176;-0.708;2022-12-19T11:17:22;7;6;
55518;PMS5003;41724;51.176;-0.708;2022-12-19T11:19:51;8;6;
55518;PMS5003;41724;51.176;-0.708;2022-12-19T11:22:20;8;8;
55518;PMS5003;41724;51.176;-0.708;2022-12-19T11:24:49;10;5;
55518;PMS5003;41724;51.176;-0.708;2022-12-19T11:27:36;4;4;
55518;PMS5003;41724;51.176;-0.708;2022-12-19T11:30:17;7;7;
55518;PMS5003;41724;51.176;-0.708;2022-12-19T11:32:48;8;8;
55518;PMS5003;41724;51.176;-0.708;2022-12-19T11:35:44;8;6;
55518;PMS5003;41724;51.176;-0.708;2022-12-19T11:38:13;7;6;
55518;PMS5003;41724;51.176;-0.708;2022-12-19T11:40:47;6;6;
55518;PMS5003;41724;51.176;-0.708;2022-12-19T11:43:18;8;7;
55518;PMS5003;41724;51.176;-0.708;2022-12-19T11:45:53;8;6;
55518;PMS5003;41724;51.176;-0.708;2022-12-19T11:48:33;6;6;
55518;PMS5003;41724;51.176;-0.708;2022-12-19T11:51:05;14;8;
55518;PMS5003;41724;51.176;-0.708;2022-12-19T11:53:44;5;5;
55518;PMS5003;41724;51.176;-0.708;2022-12-19T11:56:22;8;7;
55518;PMS5003;41724;51.176;-0.708;2022-12-19T11:58:52;7;6;
55518;PMS5003;41724;51.176;-0.708;2022-12-19T12:01:26;9;8;
55518;PMS5003;41724;51.176;-0.708;2022-12-19T12:05:03;6;5;
55518;PMS5003;41724;51.176;-0.708;2022-12-19T12:07:51;7;7;
55518;PMS5003;41724;51.176;-0.708;2022-12-19T12:10:24;7;6;
55518;PMS5003;41724;51.176;-0.708;2022-12-19T12:12:56;6;6;
55518;PMS5003;41724;51.176;-0.708;2022-12-19T12:15:47;6;5;
55518;PMS5003;41724;51.176;-0.708;2022-12-19T12:18:25;6;6;
55518;PMS5003;41724;51.176;-0.708;2022-12-19T12:21:06;5;5;
55518;PMS5003;41724;51.176;-0.708;2022-12-19T12:23:48;7;6;
55518;PMS5003;41724;51.176;-0.708;2022-12-19T12:26:30;8;8;
55518;PMS5003;41724;51.176;-0.708;2022-12-19T12:29:02;12;10;
55518;PMS5003;41724;51.176;-0.708;2022-12-19T12:31:45;7;5;
55518;PMS5003;41724;51.176;-0.708;2022-12-19T12:34:34;6;5;
55518;PMS5003;41724;51.176;-0.708;2022-12-19T12:37:16;7;5;
55518;PMS5003;41724;51.176;-0.708;2022-12-19T12:39:59;6;6;
55518;PMS5003;41724;51.176;-0.708;2022-12-19T12:42:44;6;6;
55518;PMS5003;41724;51.176;-0.708;2022-12-19T12:45:20;7;5;
55518;PMS5003;41724;51.176;-0.708;2022-12-19T12:47:52;10;8;
55518;PMS5003;41724;51.176;-0.708;2022-12-19T12:50:21;5;4;
55518;PMS5003;41724;51.176;-0.708;2022-12-19T12:52:51;8;7;
55518;PMS5003;41724;51.176;-0.708;2022-12-19T12:55:23;5;4;
55518;PMS5003;41724;51.176;-0.708;2022-12-19T12:57:52;5;4;
55518;PMS5003;41724;51.176;-0.708;2022-12-19T13:00:22;7;7;
55518;PMS5003;41724;51.176;-0.708;2022-12-19T13:02:52;6;6;
55518;PMS5003;41724;51.176;-0.708;2022-12-19T13:05:24;5;5;
55518;PMS5003;41724;51.176;-0.708;2022-12-19T13:08:22;9;7;
55518;PMS5003;41724;51.176;-0.708;2022-12-19T13:10:57;5;4;
55518;PMS5003;41724;51.176;-0.708;2022-12-19T13:13:46;7;6;
55518;PMS5003;41724;51.176;-0.708;2022-12-19T13:16:49;7;6;
55518;PMS5003;41724;51.176;-0.708;2022-12-19T13:19:20;6;5;
55518;PMS5003;41724;51.176;-0.708;2022-12-19T13:22:35;7;5;
55518;PMS5003;41724;51.176;-0.708;2022-12-19T13:26:18;10;9;
55518;PMS5003;41724;51.176;-0.708;2022-12-19T13:30:12;9;8;
55518;PMS5003;41724;51.176;-0.708;2022-12-19T13:33:15;5;4;
55518;PMS5003;41724;51.176;-0.708;2022-12-19T13:35:42;6;6;
55518;PMS5003;41724;51.176;-0.708;2022-12-19T13:38:18;6;6;
55518;PMS5003;41724;51.176;-0.708;2022-12-19T13:40:52;7;7;
55518;PMS5003;41724;51.176;-0.708;2022-12-19T13:43:23;11;10;
55518;PMS5003;41724;51.176;-0.708;2022-12-19T13:45:54;7;5;
55518;PMS5003;41724;51.176;-0.708;2022-12-19T13:48:27;5;4;
55518;PMS5003;41724;51.176;-0.708;2022-12-19T13:50:56;7;4;
55518;PMS5003;41724;51.176;-0.708;2022-12-19T13:53:27;4;4;
55518;PMS5003;41724;51.176;-0.708;2022-12-19T13:55:57;6;4;
55518;PMS5003;41724;51.176;-0.708;2022-12-19T13:58:27;4;3;
55518;PMS5003;41724;51.176;-0.708;2022-12-19T14:00:57;4;4;
55518;PMS5003;41724;51.176;-0.708;2022-12-19T14:03:31;7;4;
55518;PMS5003;41724;51.176;-0.708;2022-12-19T14:06:08;6;4;
55518;PMS5003;41724;51.176;-0.708;2022-12-19T14:08:41;5;4;
55518;PMS5003;41724;51.176;-0.708;2022-12-19T14:11:11;6;5;
55518;PMS5003;41724;51.176;-0.708;2022-12-19T14:13:43;6;5;
55518;PMS5003;41724;51.176;-0.708;2022-12-19T14:16:13;8;6;
55518;PMS5003;41724;51.176;-0.708;2022-12-19T14:18:46;6;5;
55518;PMS5003;41724;51.176;-0.708;2022-12-19T14:21:16;7;6;
55518;PMS5003;41724;51.176;-0.708;2022-12-19T14:23:44;7;7;
55518;PMS5003;41724;51.176;-0.708;2022-12-19T14:26:12;5;5;
55518;PMS5003;41724;51.176;-0.708;2022-12-19T14:28:48;8;6;
55518;PMS5003;41724;51.176;-0.708;2022-12-19T14:31:21;6;6;
55518;PMS5003;41724;51.176;-0.708;2022-12-19T14:33:50;6;5;
55518;PMS5003;41724;51.176;-0.708;2022-12-19T14:36:20;7;6;
55518;PMS5003;41724;51.176;-0.708;2022-12-19T14:38:48;8;6;
55518;PMS5003;41724;51.176;-0.708;2022-12-19T14:41:17;9;6;
55518;PMS5003;41724;51.176;-0.708;2022-12-19T14:43:58;8;8;
55518;PMS5003;41724;51.176;-0.708;2022-12-19T14:46:25;5;5;
55518;PMS5003;41724;51.176;-0.708;2022-12-19T14:48:54;7;6;
55518;PMS5003;41724;51.176;-0.708;2022-12-19T14:51:24;5;5;
55518;PMS5003;41724;51.176;-0.708;2022-12-19T14:54:25;7;6;
55518;PMS5003;41724;51.176;-0.708;2022-12-19T14:56:52;3;3;
55518;PMS5003;41724;51.176;-0.708;2022-12-19T14:59:26;2;2;
55518;PMS5003;41724;51.176;-0.708;2022-12-19T15:01:58;5;4;
55518;PMS5003;41724;51.176;-0.708;2022-12-19T15:04:29;5;5;
55518;PMS5003;41724;51.176;-0.708;2022-12-19T15:06:58;4;4;
55518;PMS5003;41724;51.176;-0.708;2022-12-19T15:09:30;6;4;
55518;PMS5003;41724;51.176;-0.708;2022-12-19T15:12:02;6;5;
55518;PMS5003;41724;51.176;-0.708;2022-12-19T15:14:40;5;4;
55518;PMS5003;41724;51.176;-0.708;2022-12-19T15:17:14;4;4;
55518;PMS5003;41724;51.176;-0.708;2022-12-19T15:19:44;5;4;
55518;PMS5003;41724;51.176;-0.708;2022-12-19T15:22:11;5;5;
55518;PMS5003;41724;51.176;-0.708;2022-12-19T15:24:39;6;5;
55518;PMS5003;41724;51.176;-0.708;2022-12-19T15:27:08;4;4;
55518;PMS5003;41724;51.176;-0.708;2022-12-19T15:29:38;4;3;
55518;PMS5003;41724;51.176;-0.708;2022-12-19T15:32:05;5;4;
55518;PMS5003;41724;51.176;-0.708;2022-12-19T15:34:35;7;7;
55518;PMS5003;41724;51.176;-0.708;2022-12-19T15:37:02;10;6;
55518;PMS5003;41724;51.176;-0.708;2022-12-19T15:39:29;5;5;
55518;PMS5003;41724;51.176;-0.708;2022-12-19T15:41:56;7;6;
55518;PMS5003;41724;51.176;-0.708;2022-12-19T15:44:27;4;4;
55518;PMS5003;41724;51.176;-0.708;2022-12-19T15:46:58;7;5;
55518;PMS5003;41724;51.176;-0.708;2022-12-19T15:49:26;7;7;
55518;PMS5003;41724;51.176;-0.708;2022-12-19T15:51:53;5;5;
55518;PMS5003;41724;51.176;-0.708;2022-12-19T15:54:20;8;7;
55518;PMS5003;41724;51.176;-0.708;2022-12-19T15:56:48;5;5;
55518;PMS5003;41724;51.176;-0.708;2022-12-19T15:59:22;5;5;
55518;PMS5003;41724;51.176;-0.708;2022-12-19T16:01:52;4;4;
55518;PMS5003;41724;51.176;-0.708;2022-12-19T16:04:21;8;7;
55518;PMS5003;41724;51.176;-0.708;2022-12-19T16:06:49;7;4;
55518;PMS5003;41724;51.176;-0.708;2022-12-19T16:09:18;4;3;
55518;PMS5003;41724;51.176;-0.708;2022-12-19T16:11:47;6;5;
55518;PMS5003;41724;51.176;-0.708;2022-12-19T16:14:14;6;6;
55518;PMS5003;41724;51.176;-0.708;2022-12-19T16:16:43;8;6;
55518;PMS5003;41724;51.176;-0.708;2022-12-19T16:19:21;6;5;
55518;PMS5003;41724;51.176;-0.708;2022-12-19T16:21:50;7;6;
55518;PMS5003;41724;51.176;-0.708;2022-12-19T16:24:18;6;6;
55518;PMS5003;41724;51.176;-0.708;2022-12-19T16:26:48;6;5;
55518;PMS5003;41724;51.176;-0.708;2022-12-19T16:29:18;3;3;
55518;PMS5003;41724;51.176;-0.708;2022-12-19T16:31:48;5;4;
55518;PMS5003;41724;51.176;-0.708;2022-12-19T16:34:16;4;3;
55518;PMS5003;41724;51.176;-0.708;2022-12-19T16:36:45;6;6;
55518;PMS5003;41724;51.176;-0.708;2022-12-19T16:39:12;7;5;
55518;PMS5003;41724;51.176;-0.708;2022-12-19T16:41:40;7;7;
55518;PMS5003;41724;51.176;-0.708;2022-12-19T16:44:12;7;6;
55518;PMS5003;41724;51.176;-0.708;2022-12-19T16:46:41;11;10;
55518;PMS5003;41724;51.176;-0.708;2022-12-19T16:49:10;7;6;
55518;PMS5003;41724;51.176;-0.708;2022-12-19T16:51:40;12;10;
55518;PMS5003;41724;51.176;-0.708;2022-12-19T16:54:07;10;8;
55518;PMS5003;41724;51.176;-0.708;2022-12-19T16:56:38;9;9;
55518;PMS5003;41724;51.176;-0.708;2022-12-19T16:59:11;11;10;
55518;PMS5003;41724;51.176;-0.708;2022-12-19T17:01:41;5;4;
55518;PMS5003;41724;51.176;-0.708;2022-12-19T17:04:11;6;5;